sensor_id;sensor_type;location;lat;lon;timestamp;pressure;altitude;pressure_sealevel;temperature;humidity
30081;BME280;16902;50.816;12.828;2022-07-29T00:00:01;97905.31;;;13.08;100.00
30081;BME280;16902;50.816;12.828;2022-07-29T00:05:05;97912.97;;;13.10;100.00
30081;BME280;16902;50.816;12.828;2022-07-29T00:10:07;97910.53;;;13.08;100.00
30081;BME280;16902;50.816;12.828;2022-07-29T00:15:09;97902.28;;;13.05;100.00
30081;BME280;16902;50.816;12.828;2022-07-29T00:20:11;97892.00;;;13.03;100.00
30081;BME280;16902;50.816;12.828;2022-07-29T00:25:13;97874.50;;;12.97;100.00
30081;BME280;16902;50.816;12.828;2022-07-29T00:30:15;97868.63;;;12.95;100.00
30081;BME280;16902;50.816;12.828;2022-07-29T00:35:17;97860.06;;;13.01;100.00
30081;BME280;16902;50.816;12.828;2022-07-29T00:40:37;97856.66;;;13.07;100.00
30081;BME280;16902;50.816;12.828;2022-07-29T00:45:43;97849.03;;;13.06;100.00
30081;BME280;16902;50.816;12.828;2022-07-29T00:50:45;97845.97;;;13.02;100.00
30081;BME280;16902;50.816;12.828;2022-07-29T00:55:47;97843.16;;;13.04;100.00
30081;BME280;16902;50.816;12.828;2022-07-29T01:00:49;97840.16;;;13.07;100.00
30081;BME280;16902;50.816;12.828;2022-07-29T01:05:52;97838.38;;;13.07;100.00
30081;BME280;16902;50.816;12.828;2022-07-29T01:10:54;97840.59;;;13.10;100.00
30081;BME280;16902;50.816;12.828;2022-07-29T01:16:04;97839.38;;;13.13;100.00
30081;BME280;16902;50.816;12.828;2022-07-29T01:21:21;97844.81;;;13.11;100.00
30081;BME280;16902;50.816;12.828;2022-07-29T01:31:54;97833.97;;;13.15;100.00
30081;BME280;16902;50.816;12.828;2022-07-29T01:37:09;97835.59;;;13.16;100.00
30081;BME280;16902;50.816;12.828;2022-07-29T01:42:32;97832.56;;;13.19;100.00
30081;BME280;16902;50.816;12.828;2022-07-29T01:47:44;97833.03;;;13.22;100.00
30081;BME280;16902;50.816;12.828;2022-07-29T01:52:54;97822.19;;;13.25;100.00
30081;BME280;16902;50.816;12.828;2022-07-29T01:57:59;97818.16;;;13.23;100.00
30081;BME280;16902;50.816;12.828;2022-07-29T02:03:07;97810.06;;;13.18;100.00
30081;BME280;16902;50.816;12.828;2022-07-29T02:08:10;97805.84;;;13.17;100.00
30081;BME280;16902;50.816;12.828;2022-07-29T02:13:16;97797.38;;;13.15;100.00
30081;BME280;16902;50.816;12.828;2022-07-29T02:18:20;97807.44;;;13.18;100.00
30081;BME280;16902;50.816;12.828;2022-07-29T02:23:25;97805.63;;;13.18;100.00
30081;BME280;16902;50.816;12.828;2022-07-29T02:28:29;97794.75;;;13.15;100.00
30081;BME280;16902;50.816;12.828;2022-07-29T02:33:32;97793.94;;;13.14;100.00
30081;BME280;16902;50.816;12.828;2022-07-29T02:38:35;97794.94;;;13.13;100.00
30081;BME280;16902;50.816;12.828;2022-07-29T02:44:02;97794.75;;;13.15;100.00
30081;BME280;16902;50.816;12.828;2022-07-29T02:49:24;97793.16;;;13.13;100.00
30081;BME280;16902;50.816;12.828;2022-07-29T02:54:42;97798.38;;;13.13;100.00
30081;BME280;16902;50.816;12.828;2022-07-29T02:59:48;97795.97;;;13.19;100.00
30081;BME280;16902;50.816;12.828;2022-07-29T03:04:52;97793.56;;;13.17;100.00
30081;BME280;16902;50.816;12.828;2022-07-29T03:09:58;97796.19;;;13.17;100.00
30081;BME280;16902;50.816;12.828;2022-07-29T03:15:01;97799.41;;;13.19;100.00
30081;BME280;16902;50.816;12.828;2022-07-29T03:20:04;97793.19;;;13.20;100.00
30081;BME280;16902;50.816;12.828;2022-07-29T03:25:12;97778.72;;;13.24;100.00
30081;BME280;16902;50.816;12.828;2022-07-29T03:30:15;97781.97;;;13.33;100.00
30081;BME280;16902;50.816;12.828;2022-07-29T03:35:22;97779.19;;;13.41;100.00
30081;BME280;16902;50.816;12.828;2022-07-29T03:40:29;97786.25;;;13.47;100.00
30081;BME280;16902;50.816;12.828;2022-07-29T03:45:36;97787.25;;;13.53;100.00
30081;BME280;16902;50.816;12.828;2022-07-29T03:50:39;97784.84;;;13.51;100.00
30081;BME280;16902;50.816;12.828;2022-07-29T03:55:48;97785.88;;;13.50;100.00
30081;BME280;16902;50.816;12.828;2022-07-29T04:00:50;97790.31;;;13.56;100.00
30081;BME280;16902;50.816;12.828;2022-07-29T04:06:01;97798.16;;;13.63;100.00
30081;BME280;16902;50.816;12.828;2022-07-29T04:11:04;97799.41;;;13.74;100.00
30081;BME280;16902;50.816;12.828;2022-07-29T04:16:06;97801.84;;;13.88;100.00
30081;BME280;16902;50.816;12.828;2022-07-29T04:21:08;97806.06;;;13.96;100.00
30081;BME280;16902;50.816;12.828;2022-07-29T04:26:10;97805.88;;;14.11;100.00
30081;BME280;16902;50.816;12.828;2022-07-29T04:31:12;97798.25;;;14.23;100.00
30081;BME280;16902;50.816;12.828;2022-07-29T04:36:14;97802.66;;;14.35;100.00
30081;BME280;16902;50.816;12.828;2022-07-29T04:41:30;97799.63;;;14.45;100.00
30081;BME280;16902;50.816;12.828;2022-07-29T04:46:34;97800.66;;;14.57;100.00
30081;BME280;16902;50.816;12.828;2022-07-29T04:51:37;97791.91;;;14.83;100.00
30081;BME280;16902;50.816;12.828;2022-07-29T04:56:39;97792.41;;;15.25;100.00
30081;BME280;16902;50.816;12.828;2022-07-29T05:01:41;97796.06;;;15.62;100.00
30081;BME280;16902;50.816;12.828;2022-07-29T05:06:43;97797.63;;;16.02;100.00
30081;BME280;16902;50.816;12.828;2022-07-29T05:11:47;97810.72;;;16.33;100.00
30081;BME280;16902;50.816;12.828;2022-07-29T05:16:49;97806.91;;;16.54;100.00
30081;BME280;16902;50.816;12.828;2022-07-29T05:21:52;97795.81;;;16.70;100.00
30081;BME280;16902;50.816;12.828;2022-07-29T05:26:54;97798.56;;;16.82;100.00
30081;BME280;16902;50.816;12.828;2022-07-29T05:31:56;97804.63;;;17.01;100.00
30081;BME280;16902;50.816;12.828;2022-07-29T05:36:58;97809.81;;;17.26;100.00
30081;BME280;16902;50.816;12.828;2022-07-29T05:42:00;97820.38;;;17.56;100.00
30081;BME280;16902;50.816;12.828;2022-07-29T05:47:02;97809.19;;;17.72;100.00
30081;BME280;16902;50.816;12.828;2022-07-29T05:52:04;97811.13;;;17.95;100.00
30081;BME280;16902;50.816;12.828;2022-07-29T05:57:06;97813.94;;;18.36;100.00
30081;BME280;16902;50.816;12.828;2022-07-29T06:02:08;97814.28;;;18.51;100.00
30081;BME280;16902;50.816;12.828;2022-07-29T06:07:10;97808.72;;;18.83;100.00
30081;BME280;16902;50.816;12.828;2022-07-29T06:12:12;97805.94;;;19.01;100.00
30081;BME280;16902;50.816;12.828;2022-07-29T06:17:16;97809.88;;;19.27;100.00
30081;BME280;16902;50.816;12.828;2022-07-29T06:22:17;97817.56;;;19.57;100.00
30081;BME280;16902;50.816;12.828;2022-07-29T06:27:19;97815.75;;;19.86;100.00
30081;BME280;16902;50.816;12.828;2022-07-29T06:32:21;97815.22;;;19.84;100.00
30081;BME280;16902;50.816;12.828;2022-07-29T06:37:28;97809.88;;;19.67;100.00
30081;BME280;16902;50.816;12.828;2022-07-29T06:42:32;97809.78;;;19.62;100.00
30081;BME280;16902;50.816;12.828;2022-07-29T06:47:34;97809.84;;;19.96;100.00
30081;BME280;16902;50.816;12.828;2022-07-29T06:52:36;97813.00;;;20.26;100.00
30081;BME280;16902;50.816;12.828;2022-07-29T06:57:38;97819.22;;;20.20;100.00
30081;BME280;16902;50.816;12.828;2022-07-29T07:02:42;97817.22;;;20.44;100.00
30081;BME280;16902;50.816;12.828;2022-07-29T07:07:44;97819.66;;;20.79;100.00
30081;BME280;16902;50.816;12.828;2022-07-29T07:12:46;97818.94;;;20.67;100.00
30081;BME280;16902;50.816;12.828;2022-07-29T07:17:48;97812.13;;;20.71;100.00
30081;BME280;16902;50.816;12.828;2022-07-29T07:22:50;97813.97;;;20.71;100.00
30081;BME280;16902;50.816;12.828;2022-07-29T07:27:52;97808.84;;;20.47;100.00
30081;BME280;16902;50.816;12.828;2022-07-29T07:32:54;97809.34;;;20.83;100.00
30081;BME280;16902;50.816;12.828;2022-07-29T07:37:57;97808.09;;;21.29;100.00
30081;BME280;16902;50.816;12.828;2022-07-29T07:42:59;97819.41;;;21.69;100.00
30081;BME280;16902;50.816;12.828;2022-07-29T07:48:01;97825.66;;;21.85;100.00
30081;BME280;16902;50.816;12.828;2022-07-29T07:53:03;97823.53;;;21.33;100.00
30081;BME280;16902;50.816;12.828;2022-07-29T07:58:05;97826.88;;;21.28;100.00
30081;BME280;16902;50.816;12.828;2022-07-29T08:03:06;97824.88;;;21.35;100.00
30081;BME280;16902;50.816;12.828;2022-07-29T08:08:17;97824.31;;;21.33;100.00
30081;BME280;16902;50.816;12.828;2022-07-29T08:13:21;97820.50;;;21.07;100.00
30081;BME280;16902;50.816;12.828;2022-07-29T08:18:24;97814.84;;;20.60;100.00
30081;BME280;16902;50.816;12.828;2022-07-29T08:23:26;97815.53;;;20.89;100.00
30081;BME280;16902;50.816;12.828;2022-07-29T08:28:49;97813.69;;;21.11;100.00
30081;BME280;16902;50.816;12.828;2022-07-29T08:33:52;97809.94;;;21.29;100.00
30081;BME280;16902;50.816;12.828;2022-07-29T08:38:54;97817.28;;;21.98;100.00
30081;BME280;16902;50.816;12.828;2022-07-29T08:43:56;97821.41;;;22.43;100.00
30081;BME280;16902;50.816;12.828;2022-07-29T08:48:58;97825.63;;;22.81;100.00
30081;BME280;16902;50.816;12.828;2022-07-29T08:54:00;97816.34;;;22.78;100.00
30081;BME280;16902;50.816;12.828;2022-07-29T08:59:04;97811.03;;;23.26;100.00
30081;BME280;16902;50.816;12.828;2022-07-29T09:04:11;97813.03;;;23.71;100.00
30081;BME280;16902;50.816;12.828;2022-07-29T09:09:13;97807.50;;;24.34;88.17
30081;BME280;16902;50.816;12.828;2022-07-29T09:14:15;97819.72;;;24.35;87.46
30081;BME280;16902;50.816;12.828;2022-07-29T09:19:30;97804.81;;;24.59;84.12
30081;BME280;16902;50.816;12.828;2022-07-29T09:24:40;97808.09;;;25.31;80.17
30081;BME280;16902;50.816;12.828;2022-07-29T09:29:43;97805.72;;;26.48;67.81
30081;BME280;16902;50.816;12.828;2022-07-29T09:34:45;97808.34;;;25.84;68.82
30081;BME280;16902;50.816;12.828;2022-07-29T09:39:48;97802.28;;;25.14;70.37
30081;BME280;16902;50.816;12.828;2022-07-29T09:44:50;97802.78;;;26.15;67.04
30081;BME280;16902;50.816;12.828;2022-07-29T09:49:58;97791.38;;;26.68;62.67
30081;BME280;16902;50.816;12.828;2022-07-29T09:55:09;97786.22;;;27.24;60.22
30081;BME280;16902;50.816;12.828;2022-07-29T10:00:20;97787.34;;;27.61;56.63
30081;BME280;16902;50.816;12.828;2022-07-29T10:05:26;97777.06;;;27.87;56.37
30081;BME280;16902;50.816;12.828;2022-07-29T10:10:40;97768.03;;;27.64;59.54
30081;BME280;16902;50.816;12.828;2022-07-29T10:15:44;97761.34;;;27.99;56.73
30081;BME280;16902;50.816;12.828;2022-07-29T10:20:47;97766.38;;;27.87;55.55
30081;BME280;16902;50.816;12.828;2022-07-29T10:25:50;97774.28;;;28.43;49.28
30081;BME280;16902;50.816;12.828;2022-07-29T10:31:02;97751.97;;;28.62;49.40
30081;BME280;16902;50.816;12.828;2022-07-29T10:36:32;97763.03;;;29.52;48.28
30081;BME280;16902;50.816;12.828;2022-07-29T10:41:56;97760.94;;;29.49;49.98
30081;BME280;16902;50.816;12.828;2022-07-29T10:47:00;97759.19;;;29.80;44.15
30081;BME280;16902;50.816;12.828;2022-07-29T10:52:07;97744.81;;;29.62;46.94
30081;BME280;16902;50.816;12.828;2022-07-29T10:57:24;97751.47;;;30.32;43.97
30081;BME280;16902;50.816;12.828;2022-07-29T11:02:50;97757.72;;;30.81;43.36
30081;BME280;16902;50.816;12.828;2022-07-29T11:24:31;97739.13;;;34.17;38.97
30081;BME280;16902;50.816;12.828;2022-07-29T11:29:58;97748.44;;;35.66;34.95
30081;BME280;16902;50.816;12.828;2022-07-29T11:35:20;97731.47;;;35.41;33.96
30081;BME280;16902;50.816;12.828;2022-07-29T11:40:40;97731.19;;;33.66;36.49
30081;BME280;16902;50.816;12.828;2022-07-29T11:45:46;97726.81;;;31.62;39.49
30081;BME280;16902;50.816;12.828;2022-07-29T11:50:49;97724.28;;;32.56;37.82
30081;BME280;16902;50.816;12.828;2022-07-29T11:55:54;97717.06;;;32.21;38.48
30081;BME280;16902;50.816;12.828;2022-07-29T12:00:59;97720.47;;;32.01;40.92
30081;BME280;16902;50.816;12.828;2022-07-29T12:06:21;97727.72;;;35.06;36.61
30081;BME280;16902;50.816;12.828;2022-07-29T12:11:23;97716.81;;;38.06;31.33
30081;BME280;16902;50.816;12.828;2022-07-29T12:16:36;97712.84;;;37.42;32.19
30081;BME280;16902;50.816;12.828;2022-07-29T12:21:46;97709.22;;;34.34;34.01
30081;BME280;16902;50.816;12.828;2022-07-29T12:26:58;97712.09;;;33.30;37.85
30081;BME280;16902;50.816;12.828;2022-07-29T12:32:01;97699.34;;;34.63;34.25
30081;BME280;16902;50.816;12.828;2022-07-29T12:37:05;97696.38;;;31.96;38.30
30081;BME280;16902;50.816;12.828;2022-07-29T12:42:12;97691.84;;;31.27;41.36
30081;BME280;16902;50.816;12.828;2022-07-29T12:47:20;97687.50;;;30.12;42.90
30081;BME280;16902;50.816;12.828;2022-07-29T12:52:26;97682.88;;;29.00;44.43
30081;BME280;16902;50.816;12.828;2022-07-29T12:57:28;97688.00;;;29.24;44.38
30081;BME280;16902;50.816;12.828;2022-07-29T13:02:30;97683.72;;;27.99;47.12
30081;BME280;16902;50.816;12.828;2022-07-29T13:07:33;97685.56;;;27.52;49.47
30081;BME280;16902;50.816;12.828;2022-07-29T13:13:04;97687.25;;;26.86;53.79
30081;BME280;16902;50.816;12.828;2022-07-29T13:18:33;97694.97;;;26.45;55.92
30081;BME280;16902;50.816;12.828;2022-07-29T13:23:35;97686.69;;;25.88;55.89
30081;BME280;16902;50.816;12.828;2022-07-29T13:28:39;97693.44;;;25.76;58.29
30081;BME280;16902;50.816;12.828;2022-07-29T13:33:44;97706.69;;;25.86;57.85
30081;BME280;16902;50.816;12.828;2022-07-29T13:38:46;97702.38;;;24.52;100.00
30081;BME280;16902;50.816;12.828;2022-07-29T13:43:48;97705.03;;;23.34;100.00
30081;BME280;16902;50.816;12.828;2022-07-29T13:48:50;97708.50;;;22.15;100.00
30081;BME280;16902;50.816;12.828;2022-07-29T13:53:53;97707.44;;;21.02;100.00
30081;BME280;16902;50.816;12.828;2022-07-29T13:58:55;97698.94;;;20.40;100.00
30081;BME280;16902;50.816;12.828;2022-07-29T14:03:57;97680.84;;;20.10;100.00
30081;BME280;16902;50.816;12.828;2022-07-29T14:08:58;97683.22;;;20.11;100.00
30081;BME280;16902;50.816;12.828;2022-07-29T14:14:01;97679.84;;;20.33;100.00
30081;BME280;16902;50.816;12.828;2022-07-29T14:19:03;97696.25;;;20.51;100.00
30081;BME280;16902;50.816;12.828;2022-07-29T14:24:05;97702.66;;;20.39;100.00
30081;BME280;16902;50.816;12.828;2022-07-29T14:29:22;97703.56;;;20.27;100.00
30081;BME280;16902;50.816;12.828;2022-07-29T14:34:38;97711.28;;;20.12;100.00
30081;BME280;16902;50.816;12.828;2022-07-29T14:39:41;97730.16;;;19.70;100.00
30081;BME280;16902;50.816;12.828;2022-07-29T14:44:43;97737.13;;;18.91;100.00
30081;BME280;16902;50.816;12.828;2022-07-29T14:49:47;97748.38;;;18.51;100.00
30081;BME280;16902;50.816;12.828;2022-07-29T14:54:49;97767.97;;;18.08;100.00
30081;BME280;16902;50.816;12.828;2022-07-29T14:59:51;97777.69;;;17.84;100.00
30081;BME280;16902;50.816;12.828;2022-07-29T15:04:53;97770.13;;;17.58;100.00
30081;BME280;16902;50.816;12.828;2022-07-29T15:09:55;97765.56;;;17.35;100.00
30081;BME280;16902;50.816;12.828;2022-07-29T15:15:00;97761.63;;;17.26;100.00
30081;BME280;16902;50.816;12.828;2022-07-29T15:20:04;97758.06;;;17.20;100.00
30081;BME280;16902;50.816;12.828;2022-07-29T15:25:06;97749.91;;;17.10;100.00
30081;BME280;16902;50.816;12.828;2022-07-29T15:30:09;97727.63;;;16.94;100.00
30081;BME280;16902;50.816;12.828;2022-07-29T15:35:31;97713.91;;;16.92;100.00
30081;BME280;16902;50.816;12.828;2022-07-29T15:40:33;97702.66;;;17.03;100.00
30081;BME280;16902;50.816;12.828;2022-07-29T15:45:36;97690.56;;;17.14;100.00
30081;BME280;16902;50.816;12.828;2022-07-29T15:50:41;97695.31;;;17.35;100.00
30081;BME280;16902;50.816;12.828;2022-07-29T15:55:47;97683.81;;;17.60;100.00
30081;BME280;16902;50.816;12.828;2022-07-29T16:00:49;97674.84;;;17.91;100.00
30081;BME280;16902;50.816;12.828;2022-07-29T16:05:51;97664.66;;;18.06;100.00
30081;BME280;16902;50.816;12.828;2022-07-29T16:10:53;97663.50;;;18.26;100.00
30081;BME280;16902;50.816;12.828;2022-07-29T16:15:55;97643.00;;;18.28;100.00
30081;BME280;16902;50.816;12.828;2022-07-29T16:21:03;97642.06;;;18.34;100.00
30081;BME280;16902;50.816;12.828;2022-07-29T16:26:05;97649.34;;;18.55;100.00
30081;BME280;16902;50.816;12.828;2022-07-29T16:31:08;97663.38;;;18.84;100.00
30081;BME280;16902;50.816;12.828;2022-07-29T16:36:10;97647.00;;;18.82;100.00
30081;BME280;16902;50.816;12.828;2022-07-29T16:41:15;97645.63;;;19.08;100.00
30081;BME280;16902;50.816;12.828;2022-07-29T16:46:17;97646.47;;;19.25;100.00
30081;BME280;16902;50.816;12.828;2022-07-29T16:51:20;97645.97;;;19.29;100.00
30081;BME280;16902;50.816;12.828;2022-07-29T16:56:22;97652.56;;;18.97;100.00
30081;BME280;16902;50.816;12.828;2022-07-29T17:01:25;97664.69;;;18.82;100.00
30081;BME280;16902;50.816;12.828;2022-07-29T17:06:27;97656.78;;;18.98;100.00
30081;BME280;16902;50.816;12.828;2022-07-29T17:11:30;97654.22;;;18.87;100.00
30081;BME280;16902;50.816;12.828;2022-07-29T17:16:54;97659.78;;;18.62;100.00
30081;BME280;16902;50.816;12.828;2022-07-29T17:22:03;97662.53;;;18.55;100.00
30081;BME280;16902;50.816;12.828;2022-07-29T17:27:19;97669.66;;;18.43;100.00
30081;BME280;16902;50.816;12.828;2022-07-29T17:32:21;97669.00;;;18.24;100.00
30081;BME280;16902;50.816;12.828;2022-07-29T17:37:23;97663.28;;;18.15;100.00
30081;BME280;16902;50.816;12.828;2022-07-29T17:42:25;97676.69;;;18.02;100.00
30081;BME280;16902;50.816;12.828;2022-07-29T17:47:27;97668.44;;;17.87;100.00
30081;BME280;16902;50.816;12.828;2022-07-29T17:52:28;97672.78;;;17.81;100.00
30081;BME280;16902;50.816;12.828;2022-07-29T17:57:30;97682.03;;;17.84;100.00
30081;BME280;16902;50.816;12.828;2022-07-29T18:02:32;97670.16;;;17.81;100.00
30081;BME280;16902;50.816;12.828;2022-07-29T18:07:34;97667.00;;;17.72;100.00
30081;BME280;16902;50.816;12.828;2022-07-29T18:12:36;97665.31;;;17.78;100.00
30081;BME280;16902;50.816;12.828;2022-07-29T18:17:38;97662.66;;;17.66;100.00
30081;BME280;16902;50.816;12.828;2022-07-29T18:22:58;97649.94;;;17.52;100.00
30081;BME280;16902;50.816;12.828;2022-07-29T18:28:03;97645.34;;;17.47;100.00
30081;BME280;16902;50.816;12.828;2022-07-29T18:33:05;97642.13;;;17.45;100.00
30081;BME280;16902;50.816;12.828;2022-07-29T18:38:24;97638.13;;;17.42;100.00
30081;BME280;16902;50.816;12.828;2022-07-29T18:43:26;97639.94;;;17.30;100.00
30081;BME280;16902;50.816;12.828;2022-07-29T18:48:30;97647.03;;;17.30;100.00
30081;BME280;16902;50.816;12.828;2022-07-29T18:53:32;97651.41;;;17.36;100.00
30081;BME280;16902;50.816;12.828;2022-07-29T18:58:37;97656.78;;;17.41;100.00
30081;BME280;16902;50.816;12.828;2022-07-29T19:03:39;97670.28;;;17.44;100.00
30081;BME280;16902;50.816;12.828;2022-07-29T19:08:41;97667.94;;;17.25;100.00
30081;BME280;16902;50.816;12.828;2022-07-29T19:13:43;97656.38;;;17.14;100.00
30081;BME280;16902;50.816;12.828;2022-07-29T19:18:45;97665.59;;;17.05;100.00
30081;BME280;16902;50.816;12.828;2022-07-29T19:23:50;97677.00;;;16.99;100.00
30081;BME280;16902;50.816;12.828;2022-07-29T19:29:08;97681.47;;;16.98;100.00
30081;BME280;16902;50.816;12.828;2022-07-29T19:34:10;97691.84;;;16.93;100.00
30081;BME280;16902;50.816;12.828;2022-07-29T19:39:12;97689.09;;;16.88;100.00
30081;BME280;16902;50.816;12.828;2022-07-29T19:44:14;97688.59;;;16.79;100.00
30081;BME280;16902;50.816;12.828;2022-07-29T19:49:17;97685.81;;;16.74;100.00
30081;BME280;16902;50.816;12.828;2022-07-29T19:54:19;97695.13;;;16.70;100.00
30081;BME280;16902;50.816;12.828;2022-07-29T19:59:21;97688.84;;;16.71;100.00
30081;BME280;16902;50.816;12.828;2022-07-29T20:04:25;97690.28;;;16.74;100.00
30081;BME280;16902;50.816;12.828;2022-07-29T20:09:29;97696.31;;;16.74;100.00
30081;BME280;16902;50.816;12.828;2022-07-29T20:14:31;97697.63;;;16.83;100.00
30081;BME280;16902;50.816;12.828;2022-07-29T20:19:36;97687.13;;;16.83;100.00
30081;BME280;16902;50.816;12.828;2022-07-29T20:24:38;97691.63;;;16.76;100.00
30081;BME280;16902;50.816;12.828;2022-07-29T20:29:41;97694.94;;;16.72;100.00
30081;BME280;16902;50.816;12.828;2022-07-29T20:34:43;97695.22;;;16.82;100.00
30081;BME280;16902;50.816;12.828;2022-07-29T20:39:45;97697.66;;;17.13;100.00
30081;BME280;16902;50.816;12.828;2022-07-29T20:44:48;97703.94;;;17.42;100.00
30081;BME280;16902;50.816;12.828;2022-07-29T20:49:51;97714.16;;;17.62;100.00
30081;BME280;16902;50.816;12.828;2022-07-29T20:54:53;97714.41;;;17.72;100.00
30081;BME280;16902;50.816;12.828;2022-07-29T20:59:55;97717.47;;;17.69;100.00
30081;BME280;16902;50.816;12.828;2022-07-29T21:04:57;97722.47;;;17.78;100.00
30081;BME280;16902;50.816;12.828;2022-07-29T21:09:59;97723.38;;;17.83;100.00
30081;BME280;16902;50.816;12.828;2022-07-29T21:15:01;97742.97;;;17.76;100.00
30081;BME280;16902;50.816;12.828;2022-07-29T21:20:07;97742.38;;;17.73;100.00
30081;BME280;16902;50.816;12.828;2022-07-29T21:25:09;97750.22;;;17.62;100.00
30081;BME280;16902;50.816;12.828;2022-07-29T21:30:11;97753.69;;;17.44;100.00
30081;BME280;16902;50.816;12.828;2022-07-29T21:35:13;97775.16;;;17.29;100.00
30081;BME280;16902;50.816;12.828;2022-07-29T21:40:34;97778.31;;;17.19;100.00
30081;BME280;16902;50.816;12.828;2022-07-29T21:45:36;97775.25;;;17.23;100.00
30081;BME280;16902;50.816;12.828;2022-07-29T21:50:38;97779.06;;;17.27;100.00
30081;BME280;16902;50.816;12.828;2022-07-29T21:55:40;97781.09;;;17.25;100.00
30081;BME280;16902;50.816;12.828;2022-07-29T22:00:43;97796.16;;;17.17;100.00
30081;BME280;16902;50.816;12.828;2022-07-29T22:05:45;97789.72;;;16.95;100.00
30081;BME280;16902;50.816;12.828;2022-07-29T22:10:47;97793.81;;;17.09;100.00
30081;BME280;16902;50.816;12.828;2022-07-29T22:15:49;97792.28;;;17.02;100.00
30081;BME280;16902;50.816;12.828;2022-07-29T22:20:50;97782.44;;;16.97;100.00
30081;BME280;16902;50.816;12.828;2022-07-29T22:25:52;97786.06;;;16.96;100.00
30081;BME280;16902;50.816;12.828;2022-07-29T22:30:54;97789.00;;;16.88;100.00
30081;BME280;16902;50.816;12.828;2022-07-29T22:35:56;97783.00;;;16.99;100.00
30081;BME280;16902;50.816;12.828;2022-07-29T22:40:57;97783.81;;;17.00;100.00
30081;BME280;16902;50.816;12.828;2022-07-29T22:46:01;97775.41;;;17.09;100.00
30081;BME280;16902;50.816;12.828;2022-07-29T22:51:03;97770.00;;;17.04;100.00
30081;BME280;16902;50.816;12.828;2022-07-29T22:56:05;97768.03;;;17.00;100.00
30081;BME280;16902;50.816;12.828;2022-07-29T23:01:07;97779.34;;;17.00;100.00
30081;BME280;16902;50.816;12.828;2022-07-29T23:06:09;97774.56;;;16.97;100.00
30081;BME280;16902;50.816;12.828;2022-07-29T23:11:11;97772.78;;;16.91;100.00
30081;BME280;16902;50.816;12.828;2022-07-29T23:16:13;97767.47;;;16.79;100.00
30081;BME280;16902;50.816;12.828;2022-07-29T23:21:27;97767.13;;;16.69;100.00
30081;BME280;16902;50.816;12.828;2022-07-29T23:26:29;97772.81;;;16.66;100.00
30081;BME280;16902;50.816;12.828;2022-07-29T23:31:30;97774.78;;;16.52;100.00
30081;BME280;16902;50.816;12.828;2022-07-29T23:36:32;97767.53;;;16.48;100.00
30081;BME280;16902;50.816;12.828;2022-07-29T23:41:34;97777.09;;;16.42;100.00
30081;BME280;16902;50.816;12.828;2022-07-29T23:46:35;97774.41;;;16.24;100.00
30081;BME280;16902;50.816;12.828;2022-07-29T23:51:37;97777.19;;;16.10;100.00
30081;BME280;16902;50.816;12.828;2022-07-29T23:56:39;97775.03;;;16.01;100.00
